createdAt,value
2017-09-04T00:00:30.923Z,6.35
2017-09-04T00:02:57.491Z,5.70
2017-09-04T00:05:24.039Z,5.78
2017-09-04T00:07:50.617Z,5.25
2017-09-04T00:10:17.193Z,5.65
2017-09-04T00:12:43.753Z,5.55
2017-09-04T00:15:10.366Z,5.70
2017-09-04T00:17:36.939Z,5.75
2017-09-04T00:20:05.104Z,6.12
2017-09-04T00:22:31.564Z,6.30
2017-09-04T00:24:58.160Z,6.40
2017-09-04T00:27:24.837Z,6.55
2017-09-04T00:29:51.510Z,5.55
2017-09-04T00:32:18.107Z,6.57
2017-09-04T00:34:44.679Z,6.30
2017-09-04T00:37:11.252Z,6.35
2017-09-04T00:39:37.977Z,7.18
2017-09-04T00:42:04.584Z,6.32
2017-09-04T00:44:31.157Z,6.90
2017-09-04T00:46:57.765Z,6.93
2017-09-04T00:49:24.366Z,7.50
2017-09-04T00:51:50.960Z,6.15
2017-09-04T00:54:17.544Z,7.07
2017-09-04T00:56:44.166Z,6.50
2017-09-04T00:59:10.771Z,6.25
2017-09-04T01:01:37.680Z,6.55
2017-09-04T01:04:04.278Z,6.90
2017-09-04T01:06:30.864Z,8.10
2017-09-04T01:08:57.477Z,6.87
2017-09-04T01:11:24.078Z,6.83
2017-09-04T01:13:50.701Z,7.20
2017-09-04T01:16:17.300Z,6.90
2017-09-04T01:18:43.876Z,7.15
2017-09-04T01:21:10.421Z,7.00
2017-09-04T01:23:37.033Z,7.20
2017-09-04T01:26:03.671Z,7.35
2017-09-04T01:28:30.237Z,7.37
2017-09-04T01:30:56.778Z,6.62
2017-09-04T01:33:23.390Z,7.53
2017-09-04T01:35:50.045Z,7.75
2017-09-04T01:38:16.615Z,7.25
2017-09-04T01:40:43.214Z,6.65
2017-09-04T01:43:09.764Z,6.40
2017-09-04T01:45:36.337Z,7.22
2017-09-04T01:48:04.561Z,6.62
2017-09-04T01:50:31.918Z,7.00
2017-09-04T01:52:58.453Z,7.32
2017-09-04T01:55:24.996Z,6.65
2017-09-04T01:57:51.560Z,6.75
2017-09-04T02:00:18.171Z,6.65
2017-09-04T02:02:44.721Z,6.85
2017-09-04T02:05:11.246Z,6.82
2017-09-04T02:07:37.875Z,7.65
2017-09-04T02:10:05.309Z,6.93
2017-09-04T02:12:33.437Z,6.80
2017-09-04T02:14:59.992Z,6.93
2017-09-04T02:17:26.558Z,5.95
2017-09-04T02:19:53.169Z,6.87
2017-09-04T02:22:21.273Z,6.85
2017-09-04T02:24:47.796Z,7.18
2017-09-04T02:27:14.332Z,6.95
2017-09-04T02:29:40.998Z,7.37
2017-09-04T02:32:07.533Z,7.22
2017-09-04T02:34:34.131Z,7.70
2017-09-04T02:37:00.692Z,7.12
2017-09-04T02:39:27.433Z,7.75
2017-09-04T02:41:53.989Z,8.00
2017-09-04T02:44:20.573Z,7.45
2017-09-04T02:46:47.173Z,7.80
2017-09-04T02:49:13.771Z,6.95
2017-09-04T02:51:40.340Z,7.30
2017-09-04T02:54:07.503Z,7.05
2017-09-04T02:56:34.076Z,7.45
2017-09-04T02:59:00.717Z,7.40
2017-09-04T03:01:27.404Z,7.47
2017-09-04T03:03:53.967Z,6.70
2017-09-04T03:06:20.524Z,7.00
2017-09-04T03:08:48.014Z,6.97
2017-09-04T03:11:14.350Z,7.32
2017-09-04T03:13:40.714Z,8.05
2017-09-04T03:16:07.053Z,8.10
2017-09-04T03:18:33.403Z,6.80
2017-09-04T03:20:59.817Z,7.30
2017-09-04T03:23:26.409Z,8.25
2017-09-04T03:25:53.038Z,7.43
2017-09-04T03:28:19.448Z,8.50
2017-09-04T03:30:48.877Z,7.65
2017-09-04T03:33:15.238Z,7.80
2017-09-04T03:35:41.624Z,7.35
2017-09-04T03:38:07.989Z,8.82
2017-09-04T03:40:34.408Z,7.37
2017-09-04T03:43:00.834Z,7.28
2017-09-04T03:45:27.401Z,7.05
2017-09-04T03:47:53.807Z,6.70
2017-09-04T03:50:20.189Z,7.45
2017-09-04T03:52:46.650Z,7.87
2017-09-04T03:55:13.208Z,7.90
2017-09-04T03:57:39.600Z,7.90
2017-09-04T04:00:06.014Z,7.60
2017-09-04T04:02:32.420Z,8.20
2017-09-04T04:04:58.906Z,8.23
2017-09-04T04:07:25.267Z,8.05
2017-09-04T04:09:52.858Z,7.93
2017-09-04T04:12:19.213Z,7.43
2017-09-04T04:14:45.592Z,7.50
2017-09-04T04:17:12.071Z,7.65
2017-09-04T04:19:38.425Z,8.88
2017-09-04T04:22:04.775Z,7.68
2017-09-04T04:24:31.144Z,8.70
2017-09-04T04:26:57.499Z,8.23
2017-09-04T04:29:26.332Z,8.50
2017-09-04T04:31:52.694Z,8.20
2017-09-04T04:34:22.817Z,8.10
2017-09-04T04:36:49.148Z,7.93
2017-09-04T04:39:15.484Z,8.25
2017-09-04T04:41:41.817Z,9.10
2017-09-04T04:44:08.166Z,7.22
2017-09-04T04:46:34.525Z,9.13
2017-09-04T04:49:04.215Z,7.93
2017-09-04T04:51:30.730Z,7.82
2017-09-04T04:53:57.066Z,8.52
2017-09-04T04:56:23.421Z,7.95
2017-09-04T04:58:49.762Z,8.48
2017-09-04T05:01:16.115Z,8.68
2017-09-04T05:03:42.477Z,8.52
2017-09-04T05:06:08.824Z,8.30
2017-09-04T05:08:35.174Z,8.52
2017-09-04T05:11:01.534Z,8.30
2017-09-04T05:13:28.351Z,8.77
2017-09-04T05:15:54.765Z,9.07
2017-09-04T05:18:21.137Z,10.98
2017-09-04T05:20:47.462Z,8.25
2017-09-04T05:23:13.810Z,9.13
2017-09-04T05:25:40.243Z,8.35
2017-09-04T05:28:06.584Z,8.57
2017-09-04T05:30:35.088Z,9.07
2017-09-04T05:33:01.459Z,8.77
2017-09-04T05:35:27.800Z,10.30
2017-09-04T05:37:54.152Z,9.10
2017-09-04T05:40:20.479Z,9.13
2017-09-04T05:42:46.829Z,9.63
2017-09-04T05:45:13.661Z,10.20
2017-09-04T06:05:42.197Z,9.10
2017-09-04T06:08:08.656Z,10.05
2017-09-04T06:28:33.156Z,11.43
2017-09-04T06:30:59.752Z,10.90
2017-09-04T06:33:26.333Z,11.95
2017-09-04T06:35:52.967Z,10.65
2017-09-04T06:38:19.614Z,11.07
2017-09-04T06:40:46.199Z,11.50
2017-09-04T06:43:12.844Z,10.85
2017-09-04T06:45:41.912Z,11.60
2017-09-04T06:48:09.502Z,11.00
2017-09-04T06:50:36.074Z,11.50
2017-09-04T06:53:02.657Z,11.77
2017-09-04T06:55:29.197Z,13.77
2017-09-04T06:57:55.764Z,11.60
2017-09-04T07:00:22.385Z,13.13
2017-09-04T07:02:50.294Z,11.87
2017-09-04T07:05:16.886Z,13.30
2017-09-04T07:07:43.491Z,12.30
2017-09-04T07:10:10.097Z,11.53
2017-09-04T07:12:36.701Z,12.53
2017-09-04T07:15:03.271Z,10.87
2017-09-04T07:17:34.991Z,11.70
2017-09-04T07:20:01.581Z,11.20
2017-09-04T07:22:28.158Z,11.93
2017-09-04T07:24:54.752Z,12.03
2017-09-04T07:27:21.293Z,10.37
2017-09-04T07:29:47.885Z,13.30
2017-09-04T07:32:17.748Z,12.77
2017-09-04T07:34:44.315Z,11.60
2017-09-04T07:37:10.858Z,11.70
2017-09-04T07:39:37.530Z,11.60
2017-09-04T07:42:04.157Z,10.87
2017-09-04T07:44:30.741Z,10.90
2017-09-04T07:46:57.297Z,11.03
2017-09-04T07:49:28.063Z,12.30
2017-09-04T07:51:54.623Z,10.77
2017-09-04T07:54:21.183Z,10.53
2017-09-04T07:56:47.763Z,10.90
2017-09-04T07:59:14.350Z,9.97
2017-09-04T08:01:40.924Z,10.00
2017-09-04T08:04:07.501Z,11.27
2017-09-04T08:06:34.145Z,10.57
2017-09-04T08:09:03.579Z,9.40
2017-09-04T08:11:30.064Z,8.70
2017-09-04T08:13:56.437Z,8.10
2017-09-04T08:16:22.783Z,8.20
2017-09-04T08:18:49.116Z,7.90
2017-09-04T08:21:15.525Z,8.90
2017-09-04T08:23:41.938Z,8.10
2017-09-04T08:26:13.411Z,8.77
2017-09-04T08:28:39.761Z,7.80
2017-09-04T08:31:06.099Z,7.70
2017-09-04T08:33:32.421Z,7.60
2017-09-04T08:35:58.765Z,7.40
2017-09-04T08:38:25.173Z,7.00
2017-09-04T08:40:51.531Z,7.30
2017-09-04T08:43:19.565Z,7.17
2017-09-04T08:45:46.047Z,6.87
2017-09-04T08:48:12.386Z,6.70
2017-09-04T08:50:38.746Z,8.00
2017-09-04T08:53:05.089Z,8.53
2017-09-04T08:55:31.513Z,7.60
2017-09-04T08:57:57.885Z,8.27
2017-09-04T09:00:27.639Z,7.50
2017-09-04T09:02:53.957Z,7.73
2017-09-04T09:05:20.315Z,8.53
2017-09-04T09:07:46.685Z,7.40
2017-09-04T09:10:13.150Z,7.70
2017-09-04T09:12:39.467Z,7.40
2017-09-04T09:15:05.822Z,7.60
2017-09-04T09:17:33.577Z,7.87
2017-09-04T09:19:59.898Z,7.33
2017-09-04T09:22:26.303Z,7.17
2017-09-04T09:24:52.652Z,5.67
2017-09-04T09:27:19.039Z,5.83
2017-09-04T09:29:45.453Z,5.27
2017-09-04T09:32:13.146Z,4.87
2017-09-04T09:34:39.698Z,5.10
2017-09-04T09:37:06.057Z,5.10
2017-09-04T09:39:32.405Z,5.10
2017-09-04T09:41:58.810Z,5.43
2017-09-04T09:44:25.153Z,5.60
2017-09-04T09:46:51.491Z,4.80
2017-09-04T09:49:17.870Z,3.80
2017-09-04T09:51:46.776Z,4.07
2017-09-04T09:54:13.162Z,4.53
2017-09-04T09:56:39.544Z,4.90
2017-09-04T09:59:05.928Z,4.30
2017-09-04T10:01:32.298Z,4.67
2017-09-04T10:03:58.665Z,4.97
2017-09-04T10:06:25.050Z,4.90
2017-09-04T10:08:55.899Z,3.90
2017-09-04T10:11:22.414Z,4.47
2017-09-04T10:13:48.799Z,4.37
2017-09-04T10:16:15.157Z,3.87
2017-09-04T10:18:41.548Z,4.77
2017-09-04T10:21:07.906Z,4.40
2017-09-04T10:23:38.357Z,4.30
2017-09-04T10:26:04.845Z,4.23
2017-09-04T10:28:34.170Z,4.20
2017-09-04T10:31:01.025Z,4.00
2017-09-04T10:33:27.518Z,4.27
2017-09-04T10:35:53.894Z,4.30
2017-09-04T10:38:20.341Z,4.57
2017-09-04T10:40:46.713Z,3.70
2017-09-04T10:43:13.319Z,3.20
2017-09-04T10:45:41.298Z,3.83
2017-09-04T10:48:07.795Z,3.70
2017-09-04T10:50:34.156Z,3.40
2017-09-04T10:53:00.521Z,4.20
2017-09-04T10:55:26.873Z,3.60
2017-09-04T10:57:53.355Z,3.40
2017-09-04T11:00:19.785Z,4.13
2017-09-04T11:02:46.155Z,3.50
2017-09-04T11:05:12.513Z,3.60
2017-09-04T11:07:39.600Z,3.00
2017-09-04T11:10:05.955Z,3.60
2017-09-04T11:12:32.296Z,3.80
2017-09-04T11:14:58.685Z,3.80
2017-09-04T11:17:25.042Z,4.63
2017-09-04T11:19:54.608Z,3.40
2017-09-04T11:22:20.970Z,3.83
2017-09-04T11:24:48.247Z,4.10
2017-09-04T11:27:14.657Z,3.63
2017-09-04T11:29:41.110Z,3.63
2017-09-04T11:32:07.471Z,4.00
2017-09-04T11:34:33.838Z,3.87
2017-09-04T11:37:03.910Z,4.20
2017-09-04T11:39:30.277Z,3.97
2017-09-04T11:41:56.649Z,3.50
2017-09-04T11:44:23.012Z,3.27
2017-09-04T11:46:49.407Z,3.90
2017-09-04T11:49:15.764Z,3.70
2017-09-04T11:51:42.094Z,4.07
2017-09-04T11:54:08.477Z,3.50
2017-09-04T11:56:38.681Z,4.00
2017-09-04T11:59:05.086Z,4.30
2017-09-04T12:01:31.483Z,3.90
2017-09-04T12:03:57.938Z,4.10
2017-09-04T12:06:24.306Z,3.70
2017-09-04T12:08:50.696Z,3.77
2017-09-04T12:11:17.074Z,4.50
2017-09-04T12:13:47.906Z,3.93
2017-09-04T12:16:14.310Z,3.90
2017-09-04T12:18:40.715Z,4.00
2017-09-04T12:21:07.085Z,4.27
2017-09-04T12:23:33.503Z,4.07
2017-09-04T12:25:59.919Z,4.03
2017-09-04T12:28:27.415Z,4.20
2017-09-04T12:30:57.020Z,4.10
2017-09-04T12:33:23.412Z,4.20
2017-09-04T12:35:49.773Z,4.40
2017-09-04T12:38:16.142Z,3.57
2017-09-04T12:40:42.524Z,4.30
2017-09-04T12:43:08.857Z,3.70
2017-09-04T12:45:35.190Z,3.70
2017-09-04T12:48:05.959Z,4.10
2017-09-04T12:50:32.337Z,3.73
2017-09-04T12:52:58.764Z,4.10
2017-09-04T12:55:25.104Z,4.27
2017-09-04T12:57:51.504Z,4.13
2017-09-04T13:00:17.882Z,3.60
2017-09-04T13:02:44.271Z,3.70
2017-09-04T13:05:13.865Z,3.30
2017-09-04T13:07:40.242Z,3.63
2017-09-04T13:10:08.643Z,3.37
2017-09-04T13:12:35.087Z,3.90
2017-09-04T13:15:07.393Z,4.30
2017-09-04T13:17:41.219Z,3.73
2017-09-04T13:20:13.663Z,3.50
2017-09-04T13:22:43.085Z,3.30
2017-09-04T13:25:11.422Z,3.30
2017-09-04T13:27:46.638Z,3.30
2017-09-04T13:30:18.902Z,3.30
2017-09-04T13:32:52.094Z,3.97
2017-09-04T13:35:25.097Z,3.00
2017-09-04T13:41:09.741Z,3.37
2017-09-04T13:43:43.952Z,3.50
2017-09-04T13:49:30.290Z,3.30
2017-09-04T13:52:03.973Z,3.83
2017-09-04T13:54:36.502Z,3.33
2017-09-04T14:11:00.770Z,3.40
2017-09-04T14:19:29.297Z,2.90
2017-09-04T14:21:59.681Z,3.00
2017-09-04T14:24:29.012Z,3.47
2017-09-04T14:30:01.681Z,4.03
2017-09-04T14:32:32.890Z,3.40
2017-09-04T14:37:52.984Z,3.50
2017-09-04T14:46:31.556Z,3.90
2017-09-04T14:49:00.922Z,3.50
2017-09-04T14:51:27.578Z,3.77
2017-09-04T14:53:54.237Z,4.03
2017-09-04T14:56:20.622Z,3.50
2017-09-04T14:58:47.065Z,3.60
2017-09-04T15:01:17.855Z,3.53
2017-09-04T15:03:44.259Z,3.23
2017-09-04T15:06:10.732Z,3.40
2017-09-04T15:08:38.593Z,4.07
2017-09-04T15:11:05.244Z,3.17
2017-09-04T15:13:31.635Z,3.57
2017-09-04T15:16:00.013Z,3.70
2017-09-04T15:18:32.059Z,4.67
2017-09-04T15:20:58.611Z,4.70
2017-09-04T15:23:24.990Z,4.50
2017-09-04T15:25:51.417Z,4.20
2017-09-04T15:28:17.801Z,5.30
2017-09-04T15:30:47.341Z,4.50
2017-09-04T15:33:14.005Z,4.80
2017-09-04T15:35:40.377Z,4.47
2017-09-04T15:38:06.749Z,4.60
2017-09-04T15:40:33.237Z,4.13
2017-09-04T15:42:59.626Z,4.70
2017-09-04T16:03:26.458Z,3.80
2017-09-04T16:23:57.329Z,4.07
2017-09-04T16:44:24.956Z,3.10
2017-09-04T16:46:56.546Z,3.10
2017-09-04T16:58:24.377Z,3.10
2017-09-04T17:00:50.756Z,3.17
2017-09-04T17:03:17.159Z,3.30
2017-09-04T17:05:43.537Z,3.10
2017-09-04T17:08:11.031Z,3.10
2017-09-04T17:10:39.238Z,3.00
2017-09-04T17:13:05.792Z,2.80
2017-09-04T17:15:32.169Z,2.90
2017-09-04T17:17:58.707Z,3.37
2017-09-04T17:20:26.198Z,3.17
2017-09-04T17:22:52.615Z,3.20
2017-09-04T17:28:16.735Z,2.93
2017-09-04T17:30:43.239Z,3.33
2017-09-04T17:33:09.692Z,3.90
2017-09-04T17:35:36.323Z,3.77
2017-09-04T17:38:02.851Z,4.10
2017-09-04T17:40:29.366Z,4.17
2017-09-04T17:42:55.847Z,3.70
2017-09-04T17:45:22.324Z,3.90
2017-09-04T17:47:48.868Z,3.67
2017-09-04T17:50:15.238Z,4.03
2017-09-04T17:52:41.630Z,3.93
2017-09-04T17:55:08.366Z,3.90
2017-09-04T17:57:34.789Z,3.43
2017-09-04T18:00:01.179Z,3.70
2017-09-04T18:02:27.543Z,3.70
2017-09-04T18:04:53.922Z,4.03
2017-09-04T18:07:20.378Z,3.70
2017-09-04T18:09:46.886Z,3.60
2017-09-04T18:12:15.329Z,3.60
2017-09-04T18:14:41.686Z,3.80
2017-09-04T18:17:08.117Z,3.90
2017-09-04T18:19:36.412Z,4.00
2017-09-04T18:22:02.941Z,3.73
2017-09-04T18:24:29.337Z,3.70
2017-09-04T18:26:55.823Z,3.97
2017-09-04T18:29:22.268Z,3.70
2017-09-04T18:31:48.778Z,3.73
2017-09-04T18:34:15.146Z,4.47
2017-09-04T18:36:41.534Z,3.97
2017-09-04T18:39:07.973Z,3.60
2017-09-04T18:41:34.382Z,4.07
2017-09-04T18:44:00.737Z,4.57
2017-09-04T18:46:27.090Z,4.20
2017-09-04T18:48:53.473Z,4.53
2017-09-04T18:51:22.266Z,3.80
2017-09-04T18:53:48.627Z,4.00
2017-09-04T18:56:14.986Z,3.93
2017-09-04T18:58:41.431Z,3.77
2017-09-04T19:01:07.786Z,4.07
2017-09-04T19:03:34.288Z,4.60
2017-09-04T19:06:01.162Z,5.10
2017-09-04T19:08:27.601Z,4.73
2017-09-04T19:10:53.988Z,4.33
2017-09-04T19:13:20.327Z,4.63
2017-09-04T19:15:46.796Z,4.53
2017-09-04T19:18:13.256Z,4.57
2017-09-04T19:20:39.698Z,4.37
2017-09-04T19:23:06.198Z,5.20
2017-09-04T19:25:32.694Z,4.80
2017-09-04T19:27:59.117Z,4.70
2017-09-04T19:30:25.591Z,4.70
2017-09-04T19:32:52.075Z,4.90
2017-09-04T19:35:18.453Z,5.17
2017-09-04T19:37:46.988Z,5.30
2017-09-04T19:40:13.330Z,4.90
2017-09-04T19:42:39.710Z,4.30
2017-09-04T19:45:06.239Z,4.80
2017-09-04T19:47:33.043Z,4.90
2017-09-04T19:49:59.420Z,5.30
2017-09-04T19:52:25.795Z,5.60
2017-09-04T19:54:52.199Z,5.60
2017-09-04T19:57:18.916Z,5.87
2017-09-04T19:59:45.478Z,6.17
2017-09-04T20:02:11.867Z,6.60
2017-09-04T20:04:38.233Z,5.87
2017-09-04T20:07:04.602Z,6.03
2017-09-04T20:09:31.035Z,6.33
2017-09-04T20:12:00.658Z,6.23
2017-09-04T20:14:27.042Z,5.53
2017-09-04T20:16:53.410Z,6.33
2017-09-04T20:19:19.772Z,5.50
2017-09-04T20:21:46.150Z,5.60
2017-09-04T20:24:12.726Z,6.17
2017-09-04T20:26:39.438Z,5.70
2017-09-04T20:29:05.907Z,6.00
2017-09-04T20:31:32.239Z,6.40
2017-09-04T20:33:58.602Z,5.10
2017-09-04T20:36:25.268Z,6.17
2017-09-04T20:38:51.792Z,6.10
2017-09-04T20:41:18.242Z,5.83
2017-09-04T20:43:44.716Z,6.23
2017-09-04T20:46:11.094Z,5.70
2017-09-04T20:48:38.738Z,5.77
2017-09-04T20:51:05.094Z,5.10
2017-09-04T20:53:31.497Z,6.47
2017-09-04T20:55:57.998Z,6.07
2017-09-04T20:58:24.405Z,5.83
2017-09-04T21:00:50.869Z,5.87
2017-09-04T21:03:17.510Z,5.80
2017-09-04T21:05:44.047Z,6.70
2017-09-04T21:08:10.510Z,6.27
2017-09-04T21:10:41.630Z,5.87
2017-09-04T21:13:08.030Z,6.47
2017-09-04T21:15:34.442Z,6.60
2017-09-04T21:18:00.808Z,5.83
2017-09-04T21:20:27.236Z,6.30
2017-09-04T21:22:53.632Z,5.97
2017-09-04T21:25:20.932Z,5.80
2017-09-04T21:27:47.350Z,6.53
2017-09-04T21:30:13.804Z,6.70
2017-09-04T21:32:40.357Z,6.30
2017-09-04T21:35:06.852Z,5.80
2017-09-04T21:37:33.272Z,5.87
2017-09-04T21:39:59.678Z,6.00
2017-09-04T21:42:26.029Z,5.77
2017-09-04T21:44:52.432Z,6.10
2017-09-04T21:47:18.996Z,5.73
2017-09-04T21:49:45.358Z,5.80
2017-09-04T21:52:11.701Z,5.50
2017-09-04T21:54:40.571Z,5.80
2017-09-04T21:57:07.093Z,5.97
2017-09-04T21:59:33.596Z,5.30
2017-09-04T22:01:59.985Z,5.67
2017-09-04T22:04:26.329Z,5.03
2017-09-04T22:06:52.778Z,6.30
2017-09-04T22:09:19.230Z,5.80
2017-09-04T22:11:45.645Z,6.00
2017-09-04T22:14:13.647Z,6.30
2017-09-04T22:16:40.103Z,5.77
2017-09-04T22:19:06.449Z,6.70
2017-09-04T22:21:32.889Z,5.73
2017-09-04T22:23:59.314Z,5.57
2017-09-04T22:26:25.678Z,5.80
2017-09-04T22:28:52.017Z,6.07
2017-09-04T22:31:18.378Z,5.50
2017-09-04T22:33:44.747Z,5.57
2017-09-04T22:36:11.631Z,6.57
2017-09-04T22:38:38.032Z,5.47
2017-09-04T22:41:04.372Z,5.67
2017-09-04T22:43:30.715Z,6.67
2017-09-04T22:45:57.090Z,6.10
2017-09-04T22:48:23.522Z,7.03
2017-09-04T22:50:49.916Z,6.20
2017-09-04T22:53:16.276Z,5.47
2017-09-04T22:55:42.696Z,6.07
2017-09-04T22:58:11.850Z,4.90
2017-09-04T23:00:38.228Z,5.50
2017-09-04T23:03:04.588Z,5.80
2017-09-04T23:05:30.966Z,5.47
2017-09-04T23:07:57.337Z,6.13
2017-09-04T23:10:23.704Z,6.03
2017-09-04T23:12:50.047Z,5.83
2017-09-04T23:15:16.369Z,5.80
2017-09-04T23:17:43.126Z,6.53
2017-09-04T23:20:09.558Z,5.07
2017-09-04T23:22:38.646Z,5.80
2017-09-04T23:25:05.137Z,6.13
2017-09-04T23:27:31.642Z,5.70
2017-09-04T23:29:58.037Z,5.37
2017-09-04T23:32:24.438Z,6.13
2017-09-04T23:52:51.586Z,10.47
2017-09-04T23:55:18.212Z,10.00
2017-09-04T23:57:45.018Z,10.40
